Surface/Precipitation History
08/20/2014 08:03  to  8/21/2014 08:03
Change End Date:
Date/Time
(MDT)
Sf
Temp Chem Water Layer Surface Precipitation
Sf Sub Frz Factor Pct Depth IcePct Cond Salin Type Intens Accum Rate
08/21/2014 08:00 Dry 58.6F 74F - - - - - 0 mhos 0 None None - -
08/21/2014 07:53 Wet 58.1F 74F 32F 5 0% 0.00 in 0% 0 mhos 1 None None - -
08/21/2014 07:43 Dry 58.5F 74F - - - - - 0 mhos 1 Yes - - -
08/21/2014 07:41 Dry 58.6F 74F - - - - - 0 mhos 0 Yes - - -
08/21/2014 07:33 Dry 58.8F 74F - - - - - 0 mhos 0 None None - -
08/21/2014 07:30 Dry 58.6F 74F - - - - - 0 mhos 0 None None - -
08/21/2014 07:23 Dry 58.3F 74F - - - - - 0 mhos 1 None None - -
08/21/2014 07:12 Dry 57.6F 74F - - - - - 0 mhos 2 None None - -
08/21/2014 07:02 Dry 57.2F 74F - - - - - 0 mhos 3 None None - -
08/21/2014 07:01 Dry 57.4F 74F - - - - - 0 mhos 5 None None - -
08/21/2014 06:52 Dry 56.8F 74F - - - - - 0 mhos 12 None None - -
08/21/2014 06:42 Dry 56.7F 74F - - - - - 0 mhos 19 None None - -
08/21/2014 06:41 Dry 56.5F 74F - - - - - 0 mhos 18 None None - -
08/21/2014 06:32 Dry 56.7F 74F - - - - - 0 mhos 21 None None - -
08/21/2014 06:30 Dry 56.7F 74F - - - - - 0 mhos 22 None None - -
Date/Time
(MDT)
Sf
Temp Chem Water Layer Surface Precipitation
Sf Sub Frz Factor Pct Depth IcePct Cond Salin Type Intens Accum Rate
08/21/2014 06:22 Wet 56.8F 75F 32F 5 0% 0.00 in 0% 0 mhos 29 None None - -
08/21/2014 06:12 Wet 57.4F 75F 32F 5 0% 0.00 in 0% 0 mhos 36 None None - -
08/21/2014 06:02 Wet 57.6F 75F 32F 10 0% 0.00 in 0% 0 mhos 34 None None - -
08/21/2014 06:01 Wet 57.4F 75F 32F 10 0% 0.00 in 0% 0 mhos 31 None None - -
08/21/2014 05:52 Dry 57.6F 75F - - - - - 0 mhos 28 Yes - - -
08/21/2014 05:42 Dry 57.4F 75F - - - - - 0 mhos 30 None None - -
08/21/2014 05:32 Dry 57.2F 75F - - - - - 1 mhos 40 None None - -
08/21/2014 05:30 Dry 57.2F 75F - - - - - 1 mhos 45 None None - -
08/21/2014 05:22 Dry 57.2F 75F - - - - - 0 mhos 22 None None - -
08/21/2014 05:12 Dry 57.0F 75F - - - - - 1 mhos 55 None None - -
08/21/2014 05:02 Wet 57.2F 75F 32F 10 0% 0.00 in 0% 1 mhos 48 None None - -
08/21/2014 05:00 Wet 57.0F 75F 32F 5 0% 0.00 in 0% 1 mhos 46 None None - -
08/21/2014 04:52 Wet 57.2F 75F 32F 15 0% 0.00 in 0% 1 mhos 53 None None - -
08/21/2014 04:41 Wet 57.4F 75F 32F 15 0% 0.00 in 0% 1 mhos 53 None None - -
08/21/2014 04:31 Wet 57.4F 75F 32F 15 0% 0.00 in 0% 1 mhos 50 None None - -
Date/Time
(MDT)
Sf
Temp Chem Water Layer Surface Precipitation
Sf Sub Frz Factor Pct Depth IcePct Cond Salin Type Intens Accum Rate
08/21/2014 04:31 Wet 57.4F 76F 32F 15 0% 0.00 in 0% 1 mhos 48 None None - -
08/21/2014 04:21 Wet 57.7F 76F 32F 15 0% 0.00 in 0% 1 mhos 48 None None - -
08/21/2014 04:11 Wet 58.3F 76F 32F 15 0% 0.00 in 0% 0 mhos 29 None None - -
08/21/2014 04:01 Wet 58.6F 76F 32F 25 0% 0.00 in 0% 0 mhos 30 None None - -
08/21/2014 04:01 Wet 58.6F 76F 32F 25 0% 0.00 in 0% 0 mhos 30 None None - -
08/21/2014 03:51 Wet 58.6F 76F 32F 15 0% 0.00 in 0% 0 mhos 27 None None - -
08/21/2014 03:41 Wet 59.0F 76F 32F 15 0% 0.00 in 0% 0 mhos 32 Yes - - -
08/21/2014 03:31 Wet 59.2F 76F 32F 10 0% 0.00 in 0% 0 mhos 23 None None - -
08/21/2014 03:30 Wet 59.4F 76F 32F 10 0% 0.00 in 0% 0 mhos 21 None None - -
08/21/2014 03:21 Wet 59.4F 76F 32F 15 0% 0.00 in 0% 0 mhos 17 None None - -
08/21/2014 03:11 Wet 59.7F 76F 32F 10 0% 0.00 in 0% 0 mhos 18 None None - -
08/21/2014 03:01 Wet 59.9F 76F 32F 5 0% 0.00 in 0% 0 mhos 13 None None - -
08/21/2014 02:51 Wet 59.9F 76F 32F 10 0% 0.00 in 0% 0 mhos 15 Yes - - -
08/21/2014 02:41 Wet 59.9F 76F 32F 5 0% 0.00 in 0% 0 mhos 1 Yes - - -
08/21/2014 02:31 Dry 60.8F 76F - - - - - 0 mhos 0 None None - -
Date/Time
(MDT)
Sf
Temp Chem Water Layer Surface Precipitation
Sf Sub Frz Factor Pct Depth IcePct Cond Salin Type Intens Accum Rate
08/21/2014 02:31 Dry 60.8F 76F - - - - - 0 mhos 0 None None - -
08/21/2014 02:21 Dry 61.0F 76F - - - - - 0 mhos 0 None None - -
08/21/2014 02:11 Dry 60.4F 77F - - - - - 0 mhos 1 None None - -
08/21/2014 02:01 Wet 60.1F 77F 32F 5 0% 0.00 in 0% 0 mhos 1 None None - -
08/21/2014 02:00 Wet 60.1F 77F 32F 5 0% 0.00 in 0% 0 mhos 1 None None - -
08/21/2014 01:50 Dry 60.6F 77F - - - - - 0 mhos 0 Yes - - -
08/21/2014 01:40 Wet 60.6F 77F 32F 5 0% 0.00 in 0% 0 mhos 1 None None - -
08/21/2014 01:30 Wet 61.0F 77F 32F 5 0% 0.10 in 0% 0 mhos 1 None None - -
08/21/2014 01:30 Wet 61.0F 77F 32F 5 0% 0.10 in 0% 0 mhos 1 None None - -
08/21/2014 01:20 Wet 61.7F 77F 32F 5 0% 0.00 in 0% 0 mhos 0 Yes - - -
08/21/2014 01:10 Dry 62.8F 77F - - - - - 0 mhos 0 Yes - - -
08/21/2014 01:00 Dry 63.0F 77F - - - - - 0 mhos 0 None None - -
08/21/2014 01:00 Dry 63.0F 77F - - - - - 0 mhos 0 None None - -
08/21/2014 00:50 Dry 63.1F 77F - - - - - 0 mhos 0 None None - -
08/21/2014 00:41 Dry 63.0F 77F - - - - - 0 mhos 0 None None - -
Date/Time
(MDT)
Sf
Temp Chem Water Layer Surface Precipitation
Sf Sub Frz Factor Pct Depth IcePct Cond Salin Type Intens Accum Rate
08/21/2014 00:40 Dry 63.0F 77F - - - - - 0 mhos 0 None None - -
08/21/2014 00:30 Dry 63.1F 77F - - - - - 0 mhos 0 None None - -
08/21/2014 00:27 Dry 63.0F 77F - - - - - 0 mhos 0 None None - -
08/21/2014 00:20 Dry 63.0F 77F - - - - - 0 mhos 0 None None - -
08/21/2014 00:10 Dry 62.8F 77F - - - - - 0 mhos 0 None None - -
08/21/2014 00:05 Dry 63.0F 77F - - - - - 0 mhos 0 None None - -
08/21/2014 00:00 Dry 63.0F 77F - - - - - 0 mhos 0 None None - -
08/20/2014 23:50 Dry 63.0F 78F - - - - - 0 mhos 0 None None - -
08/20/2014 23:40 Dry 63.3F 78F - - - - - 0 mhos 0 None None - -
08/20/2014 23:31 Dry 63.7F 78F - - - - - 0 mhos 0 None None - -
08/20/2014 23:30 Dry 63.9F 78F - - - - - 0 mhos 0 None None - -
08/20/2014 23:19 Dry 64.0F 78F - - - - - 0 mhos 0 None None - -
08/20/2014 23:09 Dry 64.2F 78F - - - - - 0 mhos 0 None None - -
08/20/2014 23:01 Dry 64.2F 78F - - - - - 0 mhos 0 None None - -
08/20/2014 22:59 Dry 64.2F 78F - - - - - 0 mhos 0 None None - -
Date/Time
(MDT)
Sf
Temp Chem Water Layer Surface Precipitation
Sf Sub Frz Factor Pct Depth IcePct Cond Salin Type Intens Accum Rate
08/20/2014 22:49 Dry 64.4F 78F - - - - - 0 mhos 0 None None - -
08/20/2014 22:39 Dry 64.6F 78F - - - - - 0 mhos 0 None None - -
08/20/2014 22:30 Dry 64.8F 78F - - - - - 0 mhos 0 None None - -
08/20/2014 22:29 Dry 64.9F 78F - - - - - 0 mhos 0 None None - -
08/20/2014 22:19 Dry 65.5F 78F - - - - - 0 mhos 0 None None - -
08/20/2014 22:09 Dry 65.7F 78F - - - - - 0 mhos 0 None None - -
08/20/2014 22:01 Dry 66.0F 78F - - - - - 0 mhos 0 None None - -
08/20/2014 21:59 Dry 66.2F 78F - - - - - 0 mhos 0 None None - -
08/20/2014 21:49 Dry 66.4F 78F - - - - - 0 mhos 0 None None - -
08/20/2014 21:39 Dry 67.1F 78F - - - - - 0 mhos 0 None None - -
08/20/2014 21:31 Dry 67.6F 78F - - - - - 0 mhos 0 None None - -
08/20/2014 21:29 Dry 67.6F 78F - - - - - 0 mhos 0 None None - -
08/20/2014 21:19 Dry 67.8F 78F - - - - - 0 mhos 0 None None - -
08/20/2014 21:09 Dry 68.4F 78F - - - - - 0 mhos 0 None None - -
08/20/2014 21:01 Dry 68.5F 78F - - - - - 0 mhos 0 None None - -
Date/Time
(MDT)
Sf
Temp Chem Water Layer Surface Precipitation
Sf Sub Frz Factor Pct Depth IcePct Cond Salin Type Intens Accum Rate
08/20/2014 20:59 Dry 68.7F 78F - - - - - 0 mhos 0 None None - -
08/20/2014 20:49 Dry 68.9F 78F - - - - - 0 mhos 0 None None - -
08/20/2014 20:38 Dry 69.3F 78F - - - - - 0 mhos 0 None None - -
08/20/2014 20:31 Dry 69.8F 78F - - - - - 0 mhos 0 None None - -
08/20/2014 20:28 Dry 70.0F 78F - - - - - 0 mhos 0 None None - -
08/20/2014 20:18 Dry 70.5F 78F - - - - - 0 mhos 0 None None - -
08/20/2014 20:08 Dry 71.2F 78F - - - - - 0 mhos 0 None None - -
08/20/2014 20:01 Dry 71.8F 78F - - - - - 0 mhos 0 None None - -
08/20/2014 19:58 Dry 72.1F 78F - - - - - 0 mhos 0 None None - -
08/20/2014 19:48 Dry 73.4F 78F - - - - - 0 mhos 0 None None - -
08/20/2014 19:38 Dry 73.4F 78F - - - - - 0 mhos 0 None None - -
08/20/2014 19:31 Dry 74.1F 78F - - - - - 0 mhos 0 None None - -
08/20/2014 19:28 Dry 74.1F 78F - - - - - 0 mhos 0 None None - -
08/20/2014 19:18 Dry 74.5F 78F - - - - - 0 mhos 0 None None - -
08/20/2014 19:08 Dry 75.2F 78F - - - - - 0 mhos 0 None None - -
Date/Time
(MDT)
Sf
Temp Chem Water Layer Surface Precipitation
Sf Sub Frz Factor Pct Depth IcePct Cond Salin Type Intens Accum Rate
08/20/2014 19:01 Dry 75.4F 78F - - - - - 0 mhos 0 None None - -
08/20/2014 18:58 Dry 75.6F 78F - - - - - 0 mhos 0 None None - -
08/20/2014 18:48 Dry 76.6F 78F - - - - - 0 mhos 0 None None - -
08/20/2014 18:38 Dry 78.4F 78F - - - - - 0 mhos 0 None None - -
08/20/2014 18:31 Dry 79.2F 78F - - - - - 0 mhos 0 None None - -
08/20/2014 18:28 Dry 79.9F 78F - - - - - 0 mhos 0 None None - -
08/20/2014 18:17 Dry 80.1F 78F - - - - - 0 mhos 0 None None - -
08/20/2014 18:12 Dry 81.0F 78F - - - - - 0 mhos 0 None None - -
08/20/2014 18:07 Dry 81.5F 78F - - - - - 0 mhos 0 None None - -
08/20/2014 17:58 Dry 84.2F 77F - - - - - 0 mhos 0 None None - -
08/20/2014 17:57 Dry 84.2F 77F - - - - - 0 mhos 0 None None - -
08/20/2014 17:47 Dry 79.5F 77F - - - - - 0 mhos 0 None None - -
08/20/2014 17:37 Dry 73.0F 77F - - - - - 0 mhos 0 None None - -
08/20/2014 17:33 Dry 73.4F 77F - - - - - 0 mhos 0 None None - -
08/20/2014 17:27 Dry 73.0F 77F - - - - - 0 mhos 0 None None - -
Date/Time
(MDT)
Sf
Temp Chem Water Layer Surface Precipitation
Sf Sub Frz Factor Pct Depth IcePct Cond Salin Type Intens Accum Rate
08/20/2014 17:17 Wet 74.5F 77F 32F 10 0% 0.30 in 0% 0 mhos 1 None None - -
08/20/2014 17:07 Wet 73.0F 77F 32F 15 0% 0.60 in 0% 0 mhos 1 None None - -
08/20/2014 17:00 Wet 72.1F 77F 32F 10 0% 0.40 in 0% 0 mhos 1 None None - -
08/20/2014 16:57 Wet 72.0F 77F 32F 10 0% 1.10 in 0% 0 mhos 0 None None - -
08/20/2014 16:47 Wet 69.8F 76F 32F 15 0% 0.10 in 0% 0 mhos 1 Yes - - -
08/20/2014 16:41 Wet 69.3F 76F 32F 25 0% 0.10 in 0% 0 mhos 1 Yes - - -
08/20/2014 16:37 Wet 69.4F 76F 32F 25 0% 0.80 in 0% 0 mhos 1 Yes - - -
08/20/2014 16:30 Wet 69.6F 76F 32F 15 0% 0.40 in 0% 0 mhos 1 Yes - - -
08/20/2014 16:27 Wet 70.0F 76F 32F 15 0% 0.40 in 0% 0 mhos 1 Yes - - -
08/20/2014 16:17 Wet 70.7F 76F 32F 5 0% 0.00 in 0% 0 mhos 0 Yes - - -
08/20/2014 16:11 Wet 73.2F 76F 32F 5 0% 0.00 in 0% 0 mhos 0 Yes - - -
08/20/2014 16:07 Dry 75.0F 76F - - - - - 0 mhos 0 Yes - - -
08/20/2014 16:01 Dry 81.7F 76F - - - - - 0 mhos 0 None None - -
08/20/2014 15:57 Dry 83.1F 76F - - - - - 0 mhos 0 None None - -
08/20/2014 15:47 Dry 90.5F 76F - - - - - 0 mhos 0 None None - -
Date/Time
(MDT)
Sf
Temp Chem Water Layer Surface Precipitation
Sf Sub Frz Factor Pct Depth IcePct Cond Salin Type Intens Accum Rate
08/20/2014 15:36 Dry 98.6F 75F - - - - - 0 mhos 0 None None - -
08/20/2014 15:31 Dry 102.7F 75F - - - - - 0 mhos 0 None None - -
08/20/2014 15:26 Dry 105.6F 75F - - - - - 0 mhos 0 None None - -
08/20/2014 15:16 Dry 106.7F 75F - - - - - 0 mhos 0 None None - -
08/20/2014 15:06 Dry 115.5F 75F - - - - - 0 mhos 0 None None - -
08/20/2014 15:01 Dry 118.0F 75F - - - - - 0 mhos 0 None None - -
08/20/2014 14:56 Dry 117.5F 75F - - - - - 0 mhos 0 None None - -
08/20/2014 14:46 Dry 117.1F 75F - - - - - 0 mhos 0 None None - -
08/20/2014 14:36 Dry 115.9F 75F - - - - - 0 mhos 0 None None - -
08/20/2014 14:31 Dry 114.1F 74F - - - - - 0 mhos 0 None None - -
08/20/2014 14:26 Dry 114.8F 74F - - - - - 0 mhos 0 None None - -
08/20/2014 14:16 Dry 114.1F 74F - - - - - 0 mhos 0 None None - -
08/20/2014 14:06 Dry 115.5F 74F - - - - - 0 mhos 0 None None - -
08/20/2014 14:01 Dry 115.9F 74F - - - - - 0 mhos 0 None None - -
08/20/2014 13:56 Dry 115.5F 74F - - - - - 0 mhos 0 None None - -
Date/Time
(MDT)
Sf
Temp Chem Water Layer Surface Precipitation
Sf Sub Frz Factor Pct Depth IcePct Cond Salin Type Intens Accum Rate
08/20/2014 13:46 Dry 113.9F 74F - - - - - 0 mhos 0 None None - -
08/20/2014 13:36 Dry 112.8F 74F - - - - - 0 mhos 0 None None - -
08/20/2014 13:31 Dry 113.5F 74F - - - - - 0 mhos 0 None None - -
08/20/2014 13:26 Dry 112.3F 74F - - - - - 0 mhos 0 None None - -
08/20/2014 13:16 Dry 110.5F 74F - - - - - 0 mhos 0 None None - -
08/20/2014 13:06 Dry 109.0F 74F - - - - - 0 mhos 0 None None - -
08/20/2014 13:01 Dry 109.2F 74F - - - - - 0 mhos 0 None None - -
08/20/2014 12:56 Dry 108.0F 74F - - - - - 0 mhos 0 None None - -
08/20/2014 12:46 Dry 106.9F 74F - - - - - 0 mhos 0 None None - -
08/20/2014 12:35 Dry 105.6F 74F - - - - - 0 mhos 0 None None - -
08/20/2014 12:31 Dry 105.1F 74F - - - - - 0 mhos 0 None None - -
08/20/2014 12:25 Dry 104.2F 74F - - - - - 0 mhos 0 None None - -
08/20/2014 12:15 Dry 102.9F 74F - - - - - 0 mhos 0 None None - -
08/20/2014 12:05 Dry 100.9F 74F - - - - - 0 mhos 0 None None - -
08/20/2014 12:00 Dry 100.0F 74F - - - - - 0 mhos 0 None None - -
Date/Time
(MDT)
Sf
Temp Chem Water Layer Surface Precipitation
Sf Sub Frz Factor Pct Depth IcePct Cond Salin Type Intens Accum Rate
08/20/2014 11:55 Dry 98.6F 74F - - - - - 0 mhos 0 None None - -
08/20/2014 11:45 Dry 96.6F 74F - - - - - 0 mhos 0 None None - -
08/20/2014 11:35 Dry 93.6F 74F - - - - - 0 mhos 0 None None - -
08/20/2014 11:31 Dry 92.5F 74F - - - - - 0 mhos 0 None None - -
08/20/2014 11:25 Dry 90.3F 74F - - - - - 0 mhos 0 None None - -
08/20/2014 11:15 Dry 83.8F 74F - - - - - 0 mhos 0 None None - -
08/20/2014 11:05 Dry 82.9F 74F - - - - - 0 mhos 0 None None - -
08/20/2014 11:00 Dry 82.9F 74F - - - - - 0 mhos 0 None None - -
08/20/2014 10:55 Dry 80.1F 74F - - - - - 0 mhos 0 None None - -
08/20/2014 10:45 Dry 78.4F 74F - - - - - 0 mhos 0 None None - -
08/20/2014 10:35 Dry 77.5F 74F - - - - - 0 mhos 0 None None - -
08/20/2014 10:30 Dry 76.5F 75F - - - - - 0 mhos 0 None None - -
08/20/2014 10:25 Dry 73.4F 75F - - - - - 0 mhos 0 None None - -
08/20/2014 10:15 Dry 72.1F 75F - - - - - 0 mhos 0 None None - -
08/20/2014 10:05 Dry 73.2F 75F - - - - - 0 mhos 0 None None - -
Date/Time
(MDT)
Sf
Temp Chem Water Layer Surface Precipitation
Sf Sub Frz Factor Pct Depth IcePct Cond Salin Type Intens Accum Rate
08/20/2014 10:01 Dry 74.1F 75F - - - - - 0 mhos 0 None None - -
08/20/2014 09:55 Dry 75.2F 75F - - - - - 0 mhos 0 None None - -
08/20/2014 09:45 Dry 73.4F 75F - - - - - 0 mhos 0 None None - -
08/20/2014 09:41 Dry 72.9F 75F - - - - - 0 mhos 0 None None - -
08/20/2014 09:35 Dry 72.9F 75F - - - - - 0 mhos 0 None None - -
08/20/2014 09:29 Dry 73.4F 75F - - - - - 0 mhos 0 None None - -
08/20/2014 09:25 Dry 73.8F 75F - - - - - 0 mhos 0 None None - -
08/20/2014 09:15 Dry 69.6F 75F - - - - - 0 mhos 0 None None - -
08/20/2014 09:04 Dry 67.8F 75F - - - - - 0 mhos 0 None None - -
08/20/2014 09:01 Dry 67.6F 75F - - - - - 0 mhos 0 None None - -
08/20/2014 08:54 Dry 66.7F 75F - - - - - 0 mhos 0 None None - -
08/20/2014 08:44 Dry 65.5F 76F - - - - - 0 mhos 0 None None - -
08/20/2014 08:34 Dry 64.8F 76F - - - - - 0 mhos 0 None None - -
08/20/2014 08:31 Dry 64.2F 76F - - - - - 0 mhos 0 None None - -
08/20/2014 08:24 Dry 63.1F 76F - - - - - 0 mhos 0 None None - -
Date/Time
(MDT)
Sf
Temp Chem Water Layer Surface Precipitation
Sf Sub Frz Factor Pct Depth IcePct Cond Salin Type Intens Accum Rate
08/20/2014 08:14 Dry 60.6F 76F - - - - - 0 mhos 0 None None - -
08/20/2014 08:04 Dry 59.0F 76F - - - - - 0 mhos 0 None None - -
Change End Date:
Copyright © 1998-2005 Surface Systems, Inc.
All Rights Reserved
Send comments about the data to:
SCAN Web ® is a registered trademark of Surface Systems, Inc.
SCAN Web Version 5.6